sensor_id;sensor_type;location;lat;lon;timestamp;pressure;altitude;pressure_sealevel;temperature;humidity
59194;BME280;44967;48.598;15.650;2023-04-23T00:00:15;97656.88;;;8.91;73.91
59194;BME280;44967;48.598;15.650;2023-04-23T00:02:47;97652.63;;;8.87;73.51
59194;BME280;44967;48.598;15.650;2023-04-23T00:05:14;97652.56;;;8.89;74.18
59194;BME280;44967;48.598;15.650;2023-04-23T00:07:41;97657.66;;;8.93;73.13
59194;BME280;44967;48.598;15.650;2023-04-23T00:10:07;97658.94;;;8.82;73.32
59194;BME280;44967;48.598;15.650;2023-04-23T00:12:34;97655.63;;;8.77;73.86
59194;BME280;44967;48.598;15.650;2023-04-23T00:15:02;97653.28;;;8.68;75.09
59194;BME280;44967;48.598;15.650;2023-04-23T00:17:28;97653.06;;;8.74;74.60
59194;BME280;44967;48.598;15.650;2023-04-23T00:19:54;97653.75;;;8.80;74.52
59194;BME280;44967;48.598;15.650;2023-04-23T00:22:20;97656.53;;;8.76;74.45
59194;BME280;44967;48.598;15.650;2023-04-23T00:24:46;97651.19;;;8.77;74.36
59194;BME280;44967;48.598;15.650;2023-04-23T00:27:12;97649.53;;;8.75;74.22
59194;BME280;44967;48.598;15.650;2023-04-23T00:29:38;97650.50;;;8.72;73.52
59194;BME280;44967;48.598;15.650;2023-04-23T00:32:05;97647.44;;;8.58;74.17
59194;BME280;44967;48.598;15.650;2023-04-23T00:34:31;97637.69;;;8.62;74.23
59194;BME280;44967;48.598;15.650;2023-04-23T00:36:57;97641.44;;;8.55;75.32
59194;BME280;44967;48.598;15.650;2023-04-23T00:39:23;97638.75;;;8.56;74.85
59194;BME280;44967;48.598;15.650;2023-04-23T00:41:48;97640.38;;;8.60;74.69
59194;BME280;44967;48.598;15.650;2023-04-23T00:44:14;97640.56;;;8.54;74.25
59194;BME280;44967;48.598;15.650;2023-04-23T00:46:41;97636.91;;;8.58;74.05
59194;BME280;44967;48.598;15.650;2023-04-23T00:49:07;97635.13;;;8.60;73.59
59194;BME280;44967;48.598;15.650;2023-04-23T00:51:33;97644.47;;;8.69;73.40
59194;BME280;44967;48.598;15.650;2023-04-23T00:53:58;97641.19;;;8.62;73.72
59194;BME280;44967;48.598;15.650;2023-04-23T00:56:26;97649.41;;;8.53;74.82
59194;BME280;44967;48.598;15.650;2023-04-23T00:58:52;97654.09;;;8.43;74.15
59194;BME280;44967;48.598;15.650;2023-04-23T01:01:21;97650.34;;;8.50;74.12
59194;BME280;44967;48.598;15.650;2023-04-23T01:03:48;97646.97;;;8.45;74.30
59194;BME280;44967;48.598;15.650;2023-04-23T01:06:17;97650.31;;;8.52;74.35
59194;BME280;44967;48.598;15.650;2023-04-23T01:08:44;97651.09;;;8.54;74.22
59194;BME280;44967;48.598;15.650;2023-04-23T01:11:14;97652.88;;;8.53;74.17
59194;BME280;44967;48.598;15.650;2023-04-23T01:13:41;97645.84;;;8.54;73.72
59194;BME280;44967;48.598;15.650;2023-04-23T01:16:08;97647.16;;;8.41;74.15
59194;BME280;44967;48.598;15.650;2023-04-23T01:18:34;97636.97;;;8.30;73.88
59194;BME280;44967;48.598;15.650;2023-04-23T01:21:00;97645.03;;;8.24;74.43
59194;BME280;44967;48.598;15.650;2023-04-23T01:23:27;97647.19;;;8.12;75.01
59194;BME280;44967;48.598;15.650;2023-04-23T01:25:53;97645.69;;;8.03;75.20
59194;BME280;44967;48.598;15.650;2023-04-23T01:28:19;97647.44;;;8.02;75.50
59194;BME280;44967;48.598;15.650;2023-04-23T01:30:45;97639.16;;;8.16;75.37
59194;BME280;44967;48.598;15.650;2023-04-23T01:33:12;97646.91;;;8.21;75.51
59194;BME280;44967;48.598;15.650;2023-04-23T01:35:39;97643.94;;;8.31;75.06
59194;BME280;44967;48.598;15.650;2023-04-23T01:38:07;97651.19;;;8.23;74.74
59194;BME280;44967;48.598;15.650;2023-04-23T01:40:34;97644.97;;;8.26;74.39
59194;BME280;44967;48.598;15.650;2023-04-23T01:43:00;97652.09;;;8.22;74.44
59194;BME280;44967;48.598;15.650;2023-04-23T01:45:25;97646.63;;;8.30;74.11
59194;BME280;44967;48.598;15.650;2023-04-23T01:47:51;97647.28;;;8.09;74.82
59194;BME280;44967;48.598;15.650;2023-04-23T01:50:18;97654.72;;;7.94;75.49
59194;BME280;44967;48.598;15.650;2023-04-23T01:52:47;97657.25;;;7.70;75.66
59194;BME280;44967;48.598;15.650;2023-04-23T01:55:13;97648.56;;;7.66;76.32
59194;BME280;44967;48.598;15.650;2023-04-23T01:57:39;97650.13;;;7.73;76.69
59194;BME280;44967;48.598;15.650;2023-04-23T02:00:09;97652.63;;;7.78;76.44
59194;BME280;44967;48.598;15.650;2023-04-23T02:02:39;97645.53;;;7.80;75.77
59194;BME280;44967;48.598;15.650;2023-04-23T02:05:14;97654.16;;;7.85;75.50
59194;BME280;44967;48.598;15.650;2023-04-23T02:07:42;97654.16;;;7.85;75.28
59194;BME280;44967;48.598;15.650;2023-04-23T02:10:08;97648.03;;;7.84;75.39
59194;BME280;44967;48.598;15.650;2023-04-23T02:12:35;97642.56;;;7.90;74.97
59194;BME280;44967;48.598;15.650;2023-04-23T02:15:02;97652.44;;;7.82;75.42
59194;BME280;44967;48.598;15.650;2023-04-23T02:17:28;97650.38;;;7.64;75.22
59194;BME280;44967;48.598;15.650;2023-04-23T02:19:54;97651.09;;;7.69;76.29
59194;BME280;44967;48.598;15.650;2023-04-23T02:22:22;97654.75;;;7.64;75.88
59194;BME280;44967;48.598;15.650;2023-04-23T02:24:50;97656.66;;;7.58;76.99
59194;BME280;44967;48.598;15.650;2023-04-23T02:27:17;97645.22;;;7.61;76.34
59194;BME280;44967;48.598;15.650;2023-04-23T02:29:44;97652.47;;;7.53;76.03
59194;BME280;44967;48.598;15.650;2023-04-23T02:32:10;97656.59;;;7.62;76.63
59194;BME280;44967;48.598;15.650;2023-04-23T02:34:36;97657.72;;;7.53;76.53
59194;BME280;44967;48.598;15.650;2023-04-23T02:37:02;97654.00;;;7.29;76.68
59194;BME280;44967;48.598;15.650;2023-04-23T02:39:30;97654.78;;;7.33;76.72
59194;BME280;44967;48.598;15.650;2023-04-23T02:41:57;97652.84;;;7.39;76.60
59194;BME280;44967;48.598;15.650;2023-04-23T02:44:23;97659.84;;;7.39;76.80
59194;BME280;44967;48.598;15.650;2023-04-23T02:46:50;97652.19;;;7.31;76.71
59194;BME280;44967;48.598;15.650;2023-04-23T02:49:16;97663.44;;;7.36;76.44
59194;BME280;44967;48.598;15.650;2023-04-23T02:51:42;97666.75;;;7.43;76.73
59194;BME280;44967;48.598;15.650;2023-04-23T02:54:07;97665.97;;;7.39;76.41
59194;BME280;44967;48.598;15.650;2023-04-23T02:56:33;97661.00;;;7.30;76.32
59194;BME280;44967;48.598;15.650;2023-04-23T02:59:00;97658.59;;;7.23;75.92
59194;BME280;44967;48.598;15.650;2023-04-23T03:01:26;97657.94;;;7.15;77.44
59194;BME280;44967;48.598;15.650;2023-04-23T03:03:52;97659.47;;;7.22;76.42
59194;BME280;44967;48.598;15.650;2023-04-23T03:06:17;97653.16;;;7.29;76.71
59194;BME280;44967;48.598;15.650;2023-04-23T03:08:44;97654.03;;;7.28;77.37
59194;BME280;44967;48.598;15.650;2023-04-23T03:11:10;97647.91;;;7.27;76.52
59194;BME280;44967;48.598;15.650;2023-04-23T03:13:36;97649.63;;;7.30;75.71
59194;BME280;44967;48.598;15.650;2023-04-23T03:16:02;97642.97;;;7.17;76.46
59194;BME280;44967;48.598;15.650;2023-04-23T03:18:28;97650.19;;;7.08;76.67
59194;BME280;44967;48.598;15.650;2023-04-23T03:20:54;97653.06;;;6.99;77.21
59194;BME280;44967;48.598;15.650;2023-04-23T03:23:20;97655.38;;;7.11;77.59
59194;BME280;44967;48.598;15.650;2023-04-23T03:25:45;97661.28;;;7.20;77.13
59194;BME280;44967;48.598;15.650;2023-04-23T03:28:11;97656.22;;;7.12;77.36
59194;BME280;44967;48.598;15.650;2023-04-23T03:30:37;97657.06;;;7.14;77.31
59194;BME280;44967;48.598;15.650;2023-04-23T03:33:02;97663.63;;;6.98;77.53
59194;BME280;44967;48.598;15.650;2023-04-23T03:35:29;97665.41;;;6.96;77.99
59194;BME280;44967;48.598;15.650;2023-04-23T03:37:54;97664.69;;;6.91;77.86
59194;BME280;44967;48.598;15.650;2023-04-23T03:40:20;97664.69;;;6.91;78.76
59194;BME280;44967;48.598;15.650;2023-04-23T03:42:46;97665.69;;;6.85;78.61
59194;BME280;44967;48.598;15.650;2023-04-23T03:45:13;97663.84;;;6.89;78.00
59194;BME280;44967;48.598;15.650;2023-04-23T03:47:39;97663.78;;;6.92;77.87
59194;BME280;44967;48.598;15.650;2023-04-23T03:50:08;97666.47;;;6.90;76.77
59194;BME280;44967;48.598;15.650;2023-04-23T03:52:34;97673.66;;;6.82;77.74
59194;BME280;44967;48.598;15.650;2023-04-23T03:55:01;97676.41;;;6.78;78.20
59194;BME280;44967;48.598;15.650;2023-04-23T03:57:27;97673.75;;;6.79;78.01
59194;BME280;44967;48.598;15.650;2023-04-23T03:59:54;97676.50;;;6.75;77.57
59194;BME280;44967;48.598;15.650;2023-04-23T04:02:19;97667.63;;;6.79;77.26
59194;BME280;44967;48.598;15.650;2023-04-23T04:04:45;97669.34;;;6.80;77.62
59194;BME280;44967;48.598;15.650;2023-04-23T04:07:14;97671.91;;;6.83;78.45
59194;BME280;44967;48.598;15.650;2023-04-23T04:09:39;97668.34;;;6.84;77.63
59194;BME280;44967;48.598;15.650;2023-04-23T04:12:05;97674.44;;;6.86;77.71
59194;BME280;44967;48.598;15.650;2023-04-23T04:14:31;97667.94;;;6.67;78.00
59194;BME280;44967;48.598;15.650;2023-04-23T04:16:57;97665.25;;;6.70;77.66
59194;BME280;44967;48.598;15.650;2023-04-23T04:19:23;97654.53;;;6.77;77.52
59194;BME280;44967;48.598;15.650;2023-04-23T04:21:49;97668.53;;;6.78;78.21
59194;BME280;44967;48.598;15.650;2023-04-23T04:24:16;97670.25;;;6.79;78.01
59194;BME280;44967;48.598;15.650;2023-04-23T04:26:44;97671.78;;;6.87;77.87
59194;BME280;44967;48.598;15.650;2023-04-23T04:29:10;97668.09;;;6.94;77.33
59194;BME280;44967;48.598;15.650;2023-04-23T04:31:36;97675.03;;;6.97;77.31
59194;BME280;44967;48.598;15.650;2023-04-23T04:34:05;97680.25;;;6.98;77.27
59194;BME280;44967;48.598;15.650;2023-04-23T04:36:33;97682.75;;;7.03;76.99
59194;BME280;44967;48.598;15.650;2023-04-23T04:38:59;97688.84;;;7.03;77.22
59194;BME280;44967;48.598;15.650;2023-04-23T04:41:26;97691.53;;;7.02;77.20
59194;BME280;44967;48.598;15.650;2023-04-23T04:43:53;97690.47;;;7.09;77.12
59194;BME280;44967;48.598;15.650;2023-04-23T04:46:19;97695.94;;;7.01;77.08
59194;BME280;44967;48.598;15.650;2023-04-23T04:48:46;97697.66;;;7.02;77.47
59194;BME280;44967;48.598;15.650;2023-04-23T04:51:12;97695.81;;;7.06;77.53
59194;BME280;44967;48.598;15.650;2023-04-23T04:53:38;97692.09;;;7.15;77.87
59194;BME280;44967;48.598;15.650;2023-04-23T04:56:04;97703.09;;;7.27;77.24
59194;BME280;44967;48.598;15.650;2023-04-23T04:58:30;97695.97;;;7.32;77.14
59194;BME280;44967;48.598;15.650;2023-04-23T05:00:57;97702.78;;;7.39;77.47
59194;BME280;44967;48.598;15.650;2023-04-23T05:03:23;97705.47;;;7.38;76.42
59194;BME280;44967;48.598;15.650;2023-04-23T05:05:50;97704.50;;;7.40;77.75
59194;BME280;44967;48.598;15.650;2023-04-23T05:08:17;97713.06;;;7.47;77.94
59194;BME280;44967;48.598;15.650;2023-04-23T05:10:43;97704.69;;;7.65;77.90
59194;BME280;44967;48.598;15.650;2023-04-23T05:13:09;97707.06;;;7.74;78.19
59194;BME280;44967;48.598;15.650;2023-04-23T05:15:35;97711.41;;;7.75;76.76
59194;BME280;44967;48.598;15.650;2023-04-23T05:18:04;97708.53;;;7.83;77.59
59194;BME280;44967;48.598;15.650;2023-04-23T05:20:30;97705.44;;;7.99;77.16
59194;BME280;44967;48.598;15.650;2023-04-23T05:22:56;97712.31;;;8.03;76.91
59194;BME280;44967;48.598;15.650;2023-04-23T05:25:24;97704.97;;;8.15;77.07
59194;BME280;44967;48.598;15.650;2023-04-23T05:27:50;97716.03;;;8.26;76.41
59194;BME280;44967;48.598;15.650;2023-04-23T05:30:16;97705.31;;;8.33;76.66
59194;BME280;44967;48.598;15.650;2023-04-23T05:32:41;97700.56;;;8.44;76.55
59194;BME280;44967;48.598;15.650;2023-04-23T05:35:07;97701.00;;;8.59;76.42
59194;BME280;44967;48.598;15.650;2023-04-23T05:37:33;97706.06;;;8.65;76.49
59194;BME280;44967;48.598;15.650;2023-04-23T05:40:00;97702.03;;;8.81;76.39
59194;BME280;44967;48.598;15.650;2023-04-23T05:42:27;97713.34;;;8.84;75.35
59194;BME280;44967;48.598;15.650;2023-04-23T05:44:53;97711.19;;;8.95;75.43
59194;BME280;44967;48.598;15.650;2023-04-23T05:47:19;97706.56;;;9.02;75.30
59194;BME280;44967;48.598;15.650;2023-04-23T05:49:45;97709.84;;;9.09;75.29
59194;BME280;44967;48.598;15.650;2023-04-23T05:52:11;97707.88;;;9.15;75.72
59194;BME280;44967;48.598;15.650;2023-04-23T05:54:37;97713.69;;;9.25;75.55
59194;BME280;44967;48.598;15.650;2023-04-23T05:57:03;97719.47;;;9.36;74.89
59194;BME280;44967;48.598;15.650;2023-04-23T05:59:30;97712.09;;;9.45;74.66
59194;BME280;44967;48.598;15.650;2023-04-23T06:01:56;97716.19;;;9.54;74.83
59194;BME280;44967;48.598;15.650;2023-04-23T06:04:22;97712.19;;;9.67;74.44
59194;BME280;44967;48.598;15.650;2023-04-23T06:06:48;97717.97;;;9.77;73.95
59194;BME280;44967;48.598;15.650;2023-04-23T06:09:14;97711.47;;;9.87;73.70
59194;BME280;44967;48.598;15.650;2023-04-23T06:11:40;97713.75;;;9.96;73.56
59194;BME280;44967;48.598;15.650;2023-04-23T06:14:05;97713.28;;;10.08;73.14
59194;BME280;44967;48.598;15.650;2023-04-23T06:16:31;97717.34;;;10.18;72.96
59194;BME280;44967;48.598;15.650;2023-04-23T06:18:57;97721.47;;;10.25;73.17
59194;BME280;44967;48.598;15.650;2023-04-23T06:21:28;97717.63;;;10.34;72.50
59194;BME280;44967;48.598;15.650;2023-04-23T06:24:58;97727.56;;;10.49;72.14
59194;BME280;44967;48.598;15.650;2023-04-23T06:28:33;97718.34;;;10.59;72.04
59194;BME280;44967;48.598;15.650;2023-04-23T06:32:03;97728.44;;;10.71;71.50
59194;BME280;44967;48.598;15.650;2023-04-23T06:34:38;97721.97;;;10.78;71.40
59194;BME280;44967;48.598;15.650;2023-04-23T06:37:04;97716.31;;;10.87;71.84
59194;BME280;44967;48.598;15.650;2023-04-23T06:39:29;97709.75;;;10.98;71.44
59194;BME280;44967;48.598;15.650;2023-04-23T06:41:55;97721.84;;;11.03;71.30
59194;BME280;44967;48.598;15.650;2023-04-23T06:44:22;97715.97;;;10.97;70.61
59194;BME280;44967;48.598;15.650;2023-04-23T06:46:48;97712.84;;;11.07;70.77
59194;BME280;44967;48.598;15.650;2023-04-23T06:49:13;97708.66;;;11.23;70.75
59194;BME280;44967;48.598;15.650;2023-04-23T06:51:40;97705.09;;;11.24;70.61
59194;BME280;44967;48.598;15.650;2023-04-23T06:54:06;97710.81;;;11.34;71.31
59194;BME280;44967;48.598;15.650;2023-04-23T06:56:31;97708.59;;;11.45;70.59
59194;BME280;44967;48.598;15.650;2023-04-23T06:58:57;97707.25;;;11.55;70.27
59194;BME280;44967;48.598;15.650;2023-04-23T07:01:23;97702.44;;;11.65;70.25
59194;BME280;44967;48.598;15.650;2023-04-23T07:03:48;97702.72;;;11.79;70.11
59194;BME280;44967;48.598;15.650;2023-04-23T07:06:16;97697.06;;;11.87;69.67
59194;BME280;44967;48.598;15.650;2023-04-23T07:08:42;97708.19;;;12.13;69.51
59194;BME280;44967;48.598;15.650;2023-04-23T07:11:09;97690.28;;;12.37;68.61
59194;BME280;44967;48.598;15.650;2023-04-23T07:13:36;97689.81;;;12.48;67.24
59194;BME280;44967;48.598;15.650;2023-04-23T07:16:01;97685.81;;;12.75;66.71
59194;BME280;44967;48.598;15.650;2023-04-23T07:18:27;97694.13;;;13.03;66.48
59194;BME280;44967;48.598;15.650;2023-04-23T07:20:53;97691.59;;;13.19;66.43
59194;BME280;44967;48.598;15.650;2023-04-23T07:23:19;97689.16;;;13.32;63.87
59194;BME280;44967;48.598;15.650;2023-04-23T07:25:44;97687.44;;;13.48;60.02
59194;BME280;44967;48.598;15.650;2023-04-23T07:28:10;97686.63;;;13.63;58.77
59194;BME280;44967;48.598;15.650;2023-04-23T07:30:36;97686.78;;;13.77;59.74
59194;BME280;44967;48.598;15.650;2023-04-23T07:33:01;97697.66;;;14.05;60.13
59194;BME280;44967;48.598;15.650;2023-04-23T07:35:27;97686.03;;;14.24;58.15
59194;BME280;44967;48.598;15.650;2023-04-23T07:37:53;97685.38;;;14.36;57.18
59194;BME280;44967;48.598;15.650;2023-04-23T07:40:21;97683.59;;;14.36;57.36
59194;BME280;44967;48.598;15.650;2023-04-23T07:42:47;97678.47;;;14.32;58.27
59194;BME280;44967;48.598;15.650;2023-04-23T07:45:12;97691.94;;;14.29;57.94
59194;BME280;44967;48.598;15.650;2023-04-23T07:47:38;97694.00;;;14.24;58.05
59194;BME280;44967;48.598;15.650;2023-04-23T07:50:05;97688.03;;;14.36;58.05
59194;BME280;44967;48.598;15.650;2023-04-23T07:52:31;97684.03;;;14.44;57.98
59194;BME280;44967;48.598;15.650;2023-04-23T07:54:56;97691.13;;;14.44;58.30
59194;BME280;44967;48.598;15.650;2023-04-23T07:57:22;97688.91;;;14.52;57.38
59194;BME280;44967;48.598;15.650;2023-04-23T07:59:48;97683.59;;;14.52;57.80
59194;BME280;44967;48.598;15.650;2023-04-23T08:02:14;97684.97;;;14.43;57.01
59194;BME280;44967;48.598;15.650;2023-04-23T08:04:39;97687.50;;;14.29;57.77
59194;BME280;44967;48.598;15.650;2023-04-23T08:07:08;97679.56;;;14.45;57.91
59194;BME280;44967;48.598;15.650;2023-04-23T08:09:33;97680.84;;;14.69;57.89
59194;BME280;44967;48.598;15.650;2023-04-23T08:11:59;97685.72;;;14.92;57.15
59194;BME280;44967;48.598;15.650;2023-04-23T08:14:26;97682.56;;;15.16;57.22
59194;BME280;44967;48.598;15.650;2023-04-23T08:16:51;97693.19;;;15.45;56.42
59194;BME280;44967;48.598;15.650;2023-04-23T08:19:17;97690.16;;;15.67;54.68
59194;BME280;44967;48.598;15.650;2023-04-23T08:21:43;97679.81;;;15.91;53.02
59194;BME280;44967;48.598;15.650;2023-04-23T08:24:09;97677.72;;;16.79;51.87
59194;BME280;44967;48.598;15.650;2023-04-23T08:26:35;97681.31;;;17.71;48.42
59194;BME280;44967;48.598;15.650;2023-04-23T08:29:00;97683.44;;;18.55;45.56
59194;BME280;44967;48.598;15.650;2023-04-23T08:31:27;97683.75;;;19.34;44.58
59194;BME280;44967;48.598;15.650;2023-04-23T08:33:53;97685.63;;;18.73;45.57
59194;BME280;44967;48.598;15.650;2023-04-23T08:36:19;97687.66;;;18.70;46.55
59194;BME280;44967;48.598;15.650;2023-04-23T08:38:45;97686.53;;;18.85;45.57
59194;BME280;44967;48.598;15.650;2023-04-23T08:41:13;97685.53;;;18.99;45.65
59194;BME280;44967;48.598;15.650;2023-04-23T08:43:51;97689.50;;;19.75;44.14
59194;BME280;44967;48.598;15.650;2023-04-23T08:46:21;97682.38;;;20.87;42.18
59194;BME280;44967;48.598;15.650;2023-04-23T08:48:51;97682.34;;;21.41;39.63
59194;BME280;44967;48.598;15.650;2023-04-23T08:51:17;97682.19;;;21.54;39.30
59194;BME280;44967;48.598;15.650;2023-04-23T08:53:49;97681.81;;;21.27;39.69
59194;BME280;44967;48.598;15.650;2023-04-23T08:56:16;97679.66;;;21.41;38.69
59194;BME280;44967;48.598;15.650;2023-04-23T08:58:44;97677.91;;;20.77;40.39
59194;BME280;44967;48.598;15.650;2023-04-23T09:01:11;97680.47;;;21.10;39.53
59194;BME280;44967;48.598;15.650;2023-04-23T09:03:37;97674.09;;;20.23;41.52
59194;BME280;44967;48.598;15.650;2023-04-23T09:06:04;97675.56;;;19.94;42.46
59194;BME280;44967;48.598;15.650;2023-04-23T09:08:31;97669.06;;;19.86;42.46
59194;BME280;44967;48.598;15.650;2023-04-23T09:10:59;97678.06;;;19.15;44.42
59194;BME280;44967;48.598;15.650;2023-04-23T09:13:25;97677.09;;;18.92;44.75
59194;BME280;44967;48.598;15.650;2023-04-23T09:15:51;97674.84;;;18.37;45.71
59194;BME280;44967;48.598;15.650;2023-04-23T09:18:18;97668.31;;;18.90;45.86
59194;BME280;44967;48.598;15.650;2023-04-23T09:20:44;97671.28;;;19.46;46.13
59194;BME280;44967;48.598;15.650;2023-04-23T09:23:13;97669.78;;;19.76;45.05
59194;BME280;44967;48.598;15.650;2023-04-23T09:25:39;97672.00;;;19.83;44.37
59194;BME280;44967;48.598;15.650;2023-04-23T09:28:07;97669.59;;;19.91;44.71
59194;BME280;44967;48.598;15.650;2023-04-23T09:30:53;97662.94;;;19.72;44.66
59194;BME280;44967;48.598;15.650;2023-04-23T09:33:19;97670.91;;;19.96;44.71
59194;BME280;44967;48.598;15.650;2023-04-23T09:35:45;97663.38;;;20.01;43.84
59194;BME280;44967;48.598;15.650;2023-04-23T09:38:13;97659.72;;;20.24;43.34
59194;BME280;44967;48.598;15.650;2023-04-23T09:40:39;97658.78;;;21.13;42.46
59194;BME280;44967;48.598;15.650;2023-04-23T09:43:04;97660.25;;;21.17;42.47
59194;BME280;44967;48.598;15.650;2023-04-23T09:45:31;97659.88;;;20.34;43.14
59194;BME280;44967;48.598;15.650;2023-04-23T09:47:59;97665.41;;;20.87;42.38
59194;BME280;44967;48.598;15.650;2023-04-23T09:50:33;97658.72;;;20.81;41.90
59194;BME280;44967;48.598;15.650;2023-04-23T09:52:59;97654.69;;;21.50;40.90
59194;BME280;44967;48.598;15.650;2023-04-23T09:55:36;97660.31;;;22.00;40.21
59194;BME280;44967;48.598;15.650;2023-04-23T09:58:10;97656.69;;;22.11;38.35
59194;BME280;44967;48.598;15.650;2023-04-23T10:00:38;97654.03;;;22.50;37.76
59194;BME280;44967;48.598;15.650;2023-04-23T10:03:05;97650.59;;;21.88;38.95
59194;BME280;44967;48.598;15.650;2023-04-23T10:05:36;97648.38;;;21.20;40.78
59194;BME280;44967;48.598;15.650;2023-04-23T10:08:04;97643.75;;;21.42;40.50
59194;BME280;44967;48.598;15.650;2023-04-23T10:10:30;97643.81;;;21.31;41.36
59194;BME280;44967;48.598;15.650;2023-04-23T10:12:58;97640.16;;;21.53;40.85
59194;BME280;44967;48.598;15.650;2023-04-23T10:15:25;97646.25;;;21.55;41.38
59194;BME280;44967;48.598;15.650;2023-04-23T10:17:52;97637.91;;;21.37;41.61
59194;BME280;44967;48.598;15.650;2023-04-23T10:20:19;97640.81;;;20.59;42.83
59194;BME280;44967;48.598;15.650;2023-04-23T10:22:46;97632.03;;;20.35;43.08
59194;BME280;44967;48.598;15.650;2023-04-23T10:25:12;97630.56;;;20.20;44.32
59194;BME280;44967;48.598;15.650;2023-04-23T10:27:43;97629.47;;;20.22;44.81
59194;BME280;44967;48.598;15.650;2023-04-23T10:30:11;97626.19;;;20.52;43.78
59194;BME280;44967;48.598;15.650;2023-04-23T10:32:37;97621.56;;;20.32;44.13
59194;BME280;44967;48.598;15.650;2023-04-23T10:35:06;97622.53;;;19.87;44.58
59194;BME280;44967;48.598;15.650;2023-04-23T10:37:33;97630.31;;;19.90;45.64
59194;BME280;44967;48.598;15.650;2023-04-23T10:40:07;97625.47;;;19.95;44.77
59194;BME280;44967;48.598;15.650;2023-04-23T10:42:37;97623.75;;;19.94;44.87
59194;BME280;44967;48.598;15.650;2023-04-23T10:45:11;97625.56;;;19.71;45.86
59194;BME280;44967;48.598;15.650;2023-04-23T10:47:38;97620.13;;;19.60;47.03
59194;BME280;44967;48.598;15.650;2023-04-23T10:50:24;97615.16;;;19.55;46.57
59194;BME280;44967;48.598;15.650;2023-04-23T10:52:50;97617.69;;;19.57;47.08
59194;BME280;44967;48.598;15.650;2023-04-23T10:55:26;97627.53;;;19.45;47.06
59194;BME280;44967;48.598;15.650;2023-04-23T10:58:02;97615.97;;;19.45;48.28
59194;BME280;44967;48.598;15.650;2023-04-23T11:03:28;97614.59;;;19.85;47.92
59194;BME280;44967;48.598;15.650;2023-04-23T11:05:55;97612.50;;;19.66;47.28
59194;BME280;44967;48.598;15.650;2023-04-23T11:08:20;97621.91;;;19.83;46.35
59194;BME280;44967;48.598;15.650;2023-04-23T11:10:57;97609.47;;;20.04;46.06
59194;BME280;44967;48.598;15.650;2023-04-23T11:13:24;97613.41;;;20.34;46.30
59194;BME280;44967;48.598;15.650;2023-04-23T11:16:16;97617.03;;;20.44;45.95
59194;BME280;44967;48.598;15.650;2023-04-23T11:19:00;97624.72;;;20.48;45.08
59194;BME280;44967;48.598;15.650;2023-04-23T11:22:00;97618.78;;;20.34;45.12
59194;BME280;44967;48.598;15.650;2023-04-23T11:24:40;97615.47;;;20.41;45.54
59194;BME280;44967;48.598;15.650;2023-04-23T11:27:09;97613.50;;;20.32;44.86
59194;BME280;44967;48.598;15.650;2023-04-23T11:29:37;97609.59;;;20.47;45.65
59194;BME280;44967;48.598;15.650;2023-04-23T11:32:04;97609.31;;;20.73;45.21
59194;BME280;44967;48.598;15.650;2023-04-23T11:34:38;97609.00;;;20.33;45.68
59194;BME280;44967;48.598;15.650;2023-04-23T11:37:04;97606.66;;;20.28;45.85
59194;BME280;44967;48.598;15.650;2023-04-23T11:39:30;97609.34;;;20.39;45.65
59194;BME280;44967;48.598;15.650;2023-04-23T11:41:56;97599.38;;;20.41;45.70
59194;BME280;44967;48.598;15.650;2023-04-23T11:44:23;97595.69;;;20.20;45.28
59194;BME280;44967;48.598;15.650;2023-04-23T11:46:49;97589.81;;;20.15;45.32
59194;BME280;44967;48.598;15.650;2023-04-23T11:49:16;97595.94;;;20.17;44.67
59194;BME280;44967;48.598;15.650;2023-04-23T11:51:43;97597.75;;;20.16;45.90
59194;BME280;44967;48.598;15.650;2023-04-23T11:54:10;97590.56;;;20.17;45.39
59194;BME280;44967;48.598;15.650;2023-04-23T11:56:36;97594.59;;;20.11;45.06
59194;BME280;44967;48.598;15.650;2023-04-23T11:59:03;97585.59;;;19.90;46.79
59194;BME280;44967;48.598;15.650;2023-04-23T12:01:49;97590.31;;;20.09;46.65
59194;BME280;44967;48.598;15.650;2023-04-23T12:04:28;97595.69;;;19.98;45.64
59194;BME280;44967;48.598;15.650;2023-04-23T12:06:55;97595.19;;;20.04;46.03
59194;BME280;44967;48.598;15.650;2023-04-23T12:09:24;97589.34;;;19.88;45.58
59194;BME280;44967;48.598;15.650;2023-04-23T12:11:50;97583.75;;;19.91;45.84
59194;BME280;44967;48.598;15.650;2023-04-23T12:14:17;97578.13;;;20.05;45.79
59194;BME280;44967;48.598;15.650;2023-04-23T12:16:46;97577.03;;;19.74;46.28
59194;BME280;44967;48.598;15.650;2023-04-23T12:19:34;97572.78;;;19.94;46.49
59194;BME280;44967;48.598;15.650;2023-04-23T12:22:02;97575.34;;;20.06;46.19
59194;BME280;44967;48.598;15.650;2023-04-23T12:24:46;97559.56;;;20.24;46.53
59194;BME280;44967;48.598;15.650;2023-04-23T12:27:14;97572.53;;;20.30;46.01
59194;BME280;44967;48.598;15.650;2023-04-23T12:29:40;97569.47;;;20.35;45.37
59194;BME280;44967;48.598;15.650;2023-04-23T12:32:09;97560.41;;;20.47;46.30
59194;BME280;44967;48.598;15.650;2023-04-23T12:34:35;97555.66;;;20.39;46.72
59194;BME280;44967;48.598;15.650;2023-04-23T12:37:05;97549.44;;;20.50;46.08
59194;BME280;44967;48.598;15.650;2023-04-23T12:39:32;97555.94;;;20.14;45.91
59194;BME280;44967;48.598;15.650;2023-04-23T12:42:02;97560.56;;;20.45;46.55
59194;BME280;44967;48.598;15.650;2023-04-23T12:44:38;97557.38;;;20.40;46.01
59194;BME280;44967;48.598;15.650;2023-04-23T12:47:09;97553.91;;;20.60;45.32
59194;BME280;44967;48.598;15.650;2023-04-23T12:49:40;97552.81;;;20.95;44.47
59194;BME280;44967;48.598;15.650;2023-04-23T12:52:07;97553.06;;;20.92;43.63
59194;BME280;44967;48.598;15.650;2023-04-23T12:54:34;97545.28;;;20.89;43.89
59194;BME280;44967;48.598;15.650;2023-04-23T12:57:07;97542.22;;;20.82;44.06
59194;BME280;44967;48.598;15.650;2023-04-23T12:59:35;97537.56;;;20.63;44.41
59194;BME280;44967;48.598;15.650;2023-04-23T13:02:01;97542.38;;;20.81;44.53